This is the latest recevied weather packets stored in our database for station/object HB9TQJ-6. If no packets are shown the sender has not sent any weather packets the latest 10 day(s).
| Time | Temp. | Humidity | Pressure | Rain* | Wind** | Luminosity | Snow |
|---|---|---|---|---|---|---|---|
| 1777971128 | 15° C | 81% | 1008.6 hPa | 0 mm | - | - | - |
| 1777963302 | 13.89° C | 82% | 1009.6 hPa | 0 mm | - | - | - |
| 1777962700 | 13.89° C | 82% | 1009.7 hPa | 0 mm | - | - | - |
| 1777961516 | 13.33° C | 82% | 1009.7 hPa | 0 mm | - | - | - |
| 1777957282 | 12.78° C | 84% | 1009.4 hPa | 0 mm | - | - | - |
| 1777954272 | 12.78° C | 84% | 1009.4 hPa | 0 mm | - | - | - |
| 1777947048 | 12.78° C | 84% | 1010.1 hPa | 0 mm | - | - | - |
| 1777941630 | 12.78° C | 84% | 1011 hPa | 0 mm | - | - | - |
| 1777941029 | 13.33° C | 84% | 1011.1 hPa | 0 mm | - | - | - |
| 1777939223 | 13.33° C | 84% | 1011.4 hPa | 0 mm | - | - | - |
| 1777935611 | 14.44° C | 84% | 1011.7 hPa | 0 mm | - | - | - |
| 1777933804 | 14.44° C | 84% | 1011.8 hPa | 0 mm | - | - | - |
| 1777931998 | 14.44° C | 84% | 1012 hPa | 0 mm | - | - | - |
| 1777928387 | 15° C | 83% | 1012.7 hPa | 0 mm | - | - | - |
| 1777925998 | 15.56° C | 82% | 1012.6 hPa | 0 mm | - | - | - |
| 1777925396 | 15.56° C | 82% | 1012.5 hPa | 0 mm | - | - | - |
| 1777917550 | 16.67° C | 79% | 1013.1 hPa | 0.51 mm | - | - | - |
| 1777916949 | 16.67° C | 79% | 1013.1 hPa | 0.25 mm | - | - | - |
| 1777915142 | 16.67° C | 77% | 1012.6 hPa | 0.51 mm | - | - | - |
| 1777909123 | 18.89° C | 68% | 1013.2 hPa | 0.51 mm | - | - | - |
| 1777903102 | 21.11° C | 51% | 1012.5 hPa | 0 mm | - | - | - |
| 1777902520 | 21.11° C | 50% | 1012.5 hPa | 0 mm | - | - | - |
| 1777901317 | 21.11° C | 49% | 1012.5 hPa | 0 mm | - | - | - |
| 1777899491 | 22.22° C | 48% | 1012.5 hPa | 0 mm | - | - | - |
| 1777898890 | 22.78° C | 47% | 1012.5 hPa | 0 mm | - | - | - |
* Rain latest hour (hover to see other rain measurements)
** Current wind speed in m/s (hover to see current wind gust speed)